createdAt,value
2019-03-15T00:00:33.450Z,69.28
2019-03-15T00:03:56.961Z,69.38
2019-03-15T00:07:20.144Z,69.36
2019-03-15T00:10:43.424Z,69.43
2019-03-15T00:14:06.595Z,69.51
2019-03-15T00:17:29.665Z,69.41
2019-03-15T00:20:53.115Z,69.63
2019-03-15T00:24:16.292Z,69.62
2019-03-15T00:27:39.412Z,69.62
2019-03-15T00:31:02.658Z,68.76
2019-03-15T00:34:26.657Z,68.14
2019-03-15T00:37:49.885Z,68.33
2019-03-15T00:41:13.110Z,68.55
2019-03-15T00:44:36.412Z,67.89
2019-03-15T00:47:59.584Z,68.36
2019-03-15T00:51:22.830Z,68.33
2019-03-15T00:54:45.955Z,68.25
2019-03-15T00:58:09.101Z,68.05
2019-03-15T01:01:32.404Z,68.38
2019-03-15T01:04:55.581Z,68.36
2019-03-15T01:08:19.026Z,68.40
2019-03-15T01:11:45.362Z,69.14
2019-03-15T01:15:07.417Z,68.53
2019-03-15T01:18:30.582Z,67.81
2019-03-15T01:21:53.994Z,68.95
2019-03-15T01:25:18.533Z,68.51
2019-03-15T01:28:41.641Z,68.74
2019-03-15T01:32:04.795Z,68.07
2019-03-15T01:35:28.226Z,68.47
2019-03-15T01:38:51.544Z,67.83
2019-03-15T01:42:14.620Z,68.70
2019-03-15T01:45:37.778Z,68.34
2019-03-15T01:49:00.903Z,68.16
2019-03-15T01:52:24.437Z,68.88
2019-03-15T01:55:47.614Z,68.39
2019-03-15T01:59:11.398Z,69.61
2019-03-15T02:02:34.577Z,69.03
2019-03-15T02:05:58.134Z,68.72
2019-03-15T02:09:21.233Z,69.79
2019-03-15T02:12:44.475Z,69.00
2019-03-15T02:16:08.762Z,68.53
2019-03-15T02:19:32.106Z,68.82
2019-03-15T02:22:55.306Z,68.83
2019-03-15T02:26:18.368Z,68.92
2019-03-15T02:29:41.826Z,69.28
2019-03-15T02:33:06.034Z,70.08
2019-03-15T02:36:29.609Z,69.30
2019-03-15T02:39:52.865Z,70.12
2019-03-15T02:43:16.117Z,69.87
2019-03-15T02:46:39.261Z,69.23
2019-03-15T02:50:02.580Z,69.75
2019-03-15T02:53:25.992Z,68.79
2019-03-15T02:56:50.127Z,69.00
2019-03-15T03:00:13.984Z,68.50
2019-03-15T03:03:37.542Z,68.82
2019-03-15T03:07:00.834Z,68.47
2019-03-15T03:10:24.509Z,68.73
2019-03-15T03:13:47.675Z,68.78
2019-03-15T03:17:10.812Z,69.47
2019-03-15T03:20:33.915Z,68.80
2019-03-15T03:23:57.544Z,68.88
2019-03-15T03:27:20.976Z,68.59
2019-03-15T03:30:45.750Z,68.68
2019-03-15T03:34:09.202Z,69.15
2019-03-15T03:37:32.395Z,70.32
2019-03-15T03:40:56.432Z,70.67
2019-03-15T03:44:19.895Z,69.34
2019-03-15T03:47:43.513Z,69.22
2019-03-15T03:51:06.758Z,68.96
2019-03-15T03:54:30.505Z,69.83
2019-03-15T03:57:53.786Z,68.68
2019-03-15T04:01:16.914Z,68.54
2019-03-15T04:04:40.078Z,69.82
2019-03-15T04:08:03.232Z,69.19
2019-03-15T04:11:26.686Z,68.25
2019-03-15T04:14:50.073Z,69.79
2019-03-15T04:18:13.539Z,69.45
2019-03-15T04:21:36.972Z,69.12
2019-03-15T04:25:00.145Z,68.84
2019-03-15T04:28:23.446Z,68.83
2019-03-15T04:31:46.530Z,69.05
2019-03-15T04:35:09.766Z,69.45
2019-03-15T04:38:32.887Z,69.19
2019-03-15T04:41:56.323Z,70.15
2019-03-15T04:45:19.851Z,69.29
2019-03-15T04:48:43.530Z,70.44
2019-03-15T04:52:06.937Z,69.55
2019-03-15T04:55:30.073Z,69.43
2019-03-15T04:58:53.495Z,70.31
2019-03-15T05:02:17.046Z,70.32
2019-03-15T05:05:40.318Z,70.76
2019-03-15T05:09:04.562Z,70.70
2019-03-15T05:12:27.731Z,70.78
2019-03-15T05:15:50.884Z,70.86
2019-03-15T05:19:14.259Z,69.85
2019-03-15T05:22:37.383Z,71.75
2019-03-15T05:26:02.148Z,71.37
2019-03-15T05:29:25.358Z,71.67
2019-03-15T05:32:48.857Z,71.24
2019-03-15T05:36:12.078Z,70.62
2019-03-15T05:39:35.279Z,73.05
2019-03-15T05:42:58.464Z,71.27
2019-03-15T05:46:21.939Z,72.19
2019-03-15T05:49:45.179Z,73.51
2019-03-15T05:53:08.363Z,74.05
2019-03-15T05:56:31.816Z,74.49
2019-03-15T05:59:55.304Z,74.96
2019-03-15T06:03:18.566Z,75.93
2019-03-15T06:06:41.840Z,74.80
2019-03-15T06:10:05.948Z,74.90
2019-03-15T06:13:29.632Z,75.84
2019-03-15T06:16:53.129Z,75.56
2019-03-15T06:20:16.253Z,77.28
2019-03-15T06:23:39.345Z,76.72
2019-03-15T06:27:03.511Z,77.53
2019-03-15T06:30:31.821Z,77.29
2019-03-15T06:33:54.987Z,77.19
2019-03-15T06:37:18.462Z,78.75
2019-03-15T06:40:41.790Z,78.62
2019-03-15T06:44:04.976Z,82.18
2019-03-15T06:47:28.576Z,82.56
2019-03-15T06:50:51.769Z,82.70
2019-03-15T06:54:15.028Z,83.78
2019-03-15T06:57:39.101Z,83.58
2019-03-15T07:01:02.299Z,82.93
2019-03-15T07:04:25.560Z,86.01
2019-03-15T07:07:48.964Z,84.80
2019-03-15T07:11:12.276Z,86.10
2019-03-15T07:14:35.461Z,85.25
2019-03-15T07:17:58.822Z,84.67
2019-03-15T07:21:21.966Z,85.44
2019-03-15T07:24:45.104Z,85.63
2019-03-15T07:28:08.414Z,85.45
2019-03-15T07:31:31.677Z,84.70
2019-03-15T07:34:54.841Z,85.52
2019-03-15T07:38:18.144Z,84.93
2019-03-15T07:41:41.697Z,85.41
2019-03-15T07:45:05.181Z,85.26
2019-03-15T07:48:28.524Z,84.82
2019-03-15T07:51:51.868Z,84.82
2019-03-15T07:55:15.167Z,86.96
2019-03-15T07:58:39.373Z,86.48
2019-03-15T08:02:02.709Z,85.77
2019-03-15T08:05:25.905Z,86.75
2019-03-15T08:08:49.112Z,87.73
2019-03-15T08:12:12.565Z,88.30
2019-03-15T08:15:35.892Z,86.90
2019-03-15T08:18:59.013Z,86.62
2019-03-15T08:22:22.525Z,87.04
2019-03-15T08:25:45.909Z,88.23
2019-03-15T08:29:09.859Z,87.66
2019-03-15T08:32:33.290Z,87.83
2019-03-15T08:35:56.491Z,87.02
2019-03-15T08:39:20.164Z,88.03
2019-03-15T08:42:43.721Z,88.41
2019-03-15T08:46:06.980Z,89.14
2019-03-15T08:49:30.533Z,87.97
2019-03-15T08:52:54.206Z,88.68
2019-03-15T08:56:17.709Z,90.28
2019-03-15T08:59:53.776Z,89.68
2019-03-15T09:03:05.984Z,90.74
2019-03-15T09:06:29.180Z,90.43
2019-03-15T09:09:52.389Z,90.83
2019-03-15T09:13:15.530Z,89.83
2019-03-15T09:16:38.747Z,90.48
2019-03-15T09:20:01.970Z,89.12
2019-03-15T09:23:25.959Z,89.15
2019-03-15T09:26:49.096Z,89.72
2019-03-15T09:30:22.603Z,89.59
2019-03-15T09:33:37.431Z,89.77
2019-03-15T09:37:01.228Z,89.22
2019-03-15T09:40:25.859Z,89.24
2019-03-15T09:43:49.771Z,89.65
2019-03-15T09:47:12.919Z,89.72
2019-03-15T09:50:50.623Z,90.34
2019-03-15T09:54:08.769Z,89.38
2019-03-15T09:57:32.075Z,89.20
2019-03-15T10:00:55.446Z,89.77
2019-03-15T10:04:18.806Z,88.99
2019-03-15T10:07:43.635Z,91.02
2019-03-15T10:11:10.102Z,90.33
2019-03-15T10:14:33.315Z,88.32
2019-03-15T10:17:56.619Z,88.92
2019-03-15T10:21:20.053Z,89.07
2019-03-15T10:24:43.540Z,89.60
2019-03-15T10:28:09.082Z,88.66
2019-03-15T10:31:32.520Z,88.61
2019-03-15T10:34:55.978Z,89.76
2019-03-15T10:38:19.360Z,89.38
2019-03-15T10:41:42.496Z,89.50
2019-03-15T10:45:08.605Z,89.13
2019-03-15T10:48:31.830Z,89.58
2019-03-15T10:51:55.157Z,88.90
2019-03-15T10:55:20.632Z,89.14
2019-03-15T10:58:43.398Z,89.70
2019-03-15T11:02:06.897Z,87.98
2019-03-15T11:05:30.089Z,88.08
2019-03-15T11:08:53.196Z,85.40
2019-03-15T11:12:21.005Z,86.92
2019-03-15T11:15:44.183Z,86.99
2019-03-15T11:19:07.367Z,86.92
2019-03-15T11:22:30.939Z,87.16
2019-03-15T11:25:54.310Z,87.87
2019-03-15T11:29:17.596Z,88.78
2019-03-15T11:32:40.814Z,86.44
2019-03-15T11:36:04.210Z,86.97
2019-03-15T11:39:27.762Z,85.41
2019-03-15T11:42:51.184Z,87.07
2019-03-15T11:46:16.511Z,87.13
2019-03-15T11:49:39.524Z,85.36
2019-03-15T11:53:02.825Z,85.14
2019-03-15T11:56:27.250Z,86.26
2019-03-15T11:59:50.893Z,85.68
2019-03-15T12:03:14.040Z,84.52
2019-03-15T12:06:37.210Z,84.39
2019-03-15T12:10:00.467Z,84.21
2019-03-15T12:13:23.705Z,81.59
2019-03-15T12:16:46.898Z,81.96
2019-03-15T12:20:10.406Z,81.38
2019-03-15T12:23:33.580Z,80.23
2019-03-15T12:26:56.803Z,80.01
2019-03-15T12:30:20.219Z,79.96
2019-03-15T12:33:43.487Z,78.75
2019-03-15T12:37:06.637Z,79.04
2019-03-15T12:40:30.816Z,78.23
2019-03-15T12:43:54.125Z,78.61
2019-03-15T12:47:17.309Z,77.51
2019-03-15T12:50:40.402Z,76.48
2019-03-15T12:54:03.730Z,76.92
2019-03-15T12:57:27.191Z,76.87
2019-03-15T13:00:50.291Z,75.54
2019-03-15T13:04:13.779Z,75.87
2019-03-15T13:07:36.864Z,74.62
2019-03-15T13:11:01.488Z,75.86
2019-03-15T13:14:24.600Z,75.61
2019-03-15T13:17:47.690Z,75.76
2019-03-15T13:21:10.881Z,75.15
2019-03-15T13:24:34.092Z,74.48
2019-03-15T13:27:57.191Z,74.30
2019-03-15T13:31:20.345Z,75.89
2019-03-15T13:34:43.588Z,74.39
2019-03-15T13:38:06.751Z,74.37
2019-03-15T13:41:29.974Z,74.85
2019-03-15T13:44:53.155Z,75.20
2019-03-15T13:48:16.437Z,74.80
2019-03-15T13:51:39.611Z,74.91
2019-03-15T13:55:05.187Z,75.10
2019-03-15T13:58:28.554Z,74.56
2019-03-15T14:01:51.870Z,73.96
2019-03-15T14:05:15.409Z,74.04
2019-03-15T14:08:38.713Z,75.91
2019-03-15T14:12:02.153Z,75.15
2019-03-15T14:15:25.666Z,75.21
2019-03-15T14:18:48.967Z,74.34
2019-03-15T14:22:12.065Z,74.74
2019-03-15T14:25:35.341Z,74.63
2019-03-15T14:28:58.746Z,73.95
2019-03-15T14:32:22.879Z,73.60
2019-03-15T14:35:46.088Z,74.27
2019-03-15T14:39:10.470Z,73.99
2019-03-15T14:42:34.013Z,73.73
2019-03-15T14:45:57.438Z,73.89
2019-03-15T14:49:20.602Z,73.51
2019-03-15T14:52:45.059Z,73.53
2019-03-15T14:56:08.107Z,73.44
2019-03-15T14:59:31.292Z,73.13
2019-03-15T15:02:54.683Z,73.95
2019-03-15T15:06:17.831Z,73.21
2019-03-15T15:09:41.072Z,74.32
2019-03-15T15:13:04.148Z,73.96
2019-03-15T15:16:27.508Z,72.49
2019-03-15T15:19:50.725Z,74.06
2019-03-15T15:23:14.241Z,73.48
2019-03-15T15:26:37.466Z,72.95
2019-03-15T15:30:00.612Z,74.28
2019-03-15T15:33:23.852Z,74.76
2019-03-15T15:36:47.117Z,76.62
2019-03-15T15:40:10.732Z,79.33
2019-03-15T15:43:34.183Z,82.31
2019-03-15T15:46:58.630Z,85.54
2019-03-15T15:50:21.775Z,87.45
2019-03-15T15:53:45.017Z,86.52
2019-03-15T15:57:08.186Z,87.70
2019-03-15T16:00:31.417Z,87.21
2019-03-15T16:23:59.579Z,87.90
2019-03-15T16:27:23.297Z,88.92
2019-03-15T16:30:46.466Z,89.92
2019-03-15T16:34:09.658Z,89.46
2019-03-15T16:37:32.852Z,89.50
2019-03-15T16:40:55.999Z,90.15
2019-03-15T16:44:19.362Z,90.34
2019-03-15T16:47:42.813Z,91.41
2019-03-15T16:51:18.730Z,90.27
2019-03-15T16:54:31.004Z,89.26
2019-03-15T16:57:54.482Z,89.53
2019-03-15T17:01:17.644Z,89.12
2019-03-15T17:04:40.861Z,89.20
2019-03-15T17:08:03.943Z,89.95
2019-03-15T17:11:27.334Z,89.01
2019-03-15T17:14:50.610Z,89.91
2019-03-15T17:18:19.605Z,89.26
2019-03-15T17:21:44.044Z,89.32
2019-03-15T17:25:08.124Z,88.61
2019-03-15T17:28:31.532Z,88.28
2019-03-15T17:31:54.831Z,88.87
2019-03-15T17:35:18.038Z,89.03
2019-03-15T17:38:41.181Z,89.71
2019-03-15T17:42:04.350Z,89.53
2019-03-15T17:45:27.829Z,89.94
2019-03-15T17:48:51.053Z,89.65
2019-03-15T17:52:14.526Z,89.32
2019-03-15T17:55:37.639Z,88.63
2019-03-15T17:59:11.803Z,87.89
2019-03-15T18:02:26.210Z,86.85
2019-03-15T18:05:49.315Z,85.80
2019-03-15T18:09:12.703Z,85.52
2019-03-15T18:12:36.001Z,85.31
2019-03-15T18:15:59.301Z,85.40
2019-03-15T18:19:22.745Z,84.61
2019-03-15T18:22:46.277Z,84.84
2019-03-15T18:26:09.632Z,84.59
2019-03-15T18:29:33.052Z,84.80
2019-03-15T18:32:56.855Z,84.86
2019-03-15T18:36:20.483Z,83.60
2019-03-15T18:39:46.121Z,84.61
2019-03-15T18:43:09.549Z,84.28
2019-03-15T18:46:33.015Z,83.44
2019-03-15T18:49:56.540Z,83.48
2019-03-15T18:53:19.789Z,84.04
2019-03-15T18:56:45.548Z,84.14
2019-03-15T19:00:15.297Z,84.23
2019-03-15T19:03:39.030Z,84.36
2019-03-15T19:07:04.735Z,84.22
2019-03-15T19:10:28.241Z,84.77
2019-03-15T19:13:51.531Z,84.91
2019-03-15T19:17:15.007Z,83.94
2019-03-15T19:20:38.603Z,84.74
2019-03-15T19:24:05.624Z,84.30
2019-03-15T19:27:28.908Z,84.56
2019-03-15T19:30:54.509Z,84.45
2019-03-15T19:34:17.955Z,84.32
2019-03-15T19:37:41.256Z,84.17
2019-03-15T19:41:06.333Z,84.75
2019-03-15T19:44:30.922Z,84.92
2019-03-15T19:47:54.784Z,84.71
2019-03-15T19:51:17.930Z,84.45
2019-03-15T19:54:41.544Z,84.26
2019-03-15T19:58:04.850Z,84.46
2019-03-15T20:01:29.168Z,83.33
2019-03-15T20:04:52.465Z,84.27
2019-03-15T20:08:15.993Z,83.54
2019-03-15T20:11:39.731Z,84.29
2019-03-15T20:18:40.670Z,84.19
2019-03-15T20:22:04.112Z,84.71
2019-03-15T20:25:27.548Z,83.98
2019-03-15T20:32:57.334Z,83.86
2019-03-15T20:36:20.580Z,83.34
2019-03-15T20:39:44.185Z,83.03
2019-03-15T20:43:07.277Z,83.77
2019-03-15T20:46:35.730Z,82.76
2019-03-15T20:49:55.954Z,82.85
2019-03-15T20:53:19.386Z,82.60
2019-03-15T20:56:44.512Z,82.72
2019-03-15T21:00:10.659Z,82.21
2019-03-15T21:03:34.703Z,81.95
2019-03-15T21:06:58.227Z,82.84
2019-03-15T21:10:21.398Z,82.25
2019-03-15T21:13:45.176Z,82.94
2019-03-15T21:17:13.161Z,83.02
2019-03-15T21:20:36.337Z,81.96
2019-03-15T21:23:59.523Z,82.70
2019-03-15T21:27:22.755Z,81.86
2019-03-15T21:30:48.593Z,82.46
2019-03-15T21:34:11.940Z,82.51
2019-03-15T21:37:35.832Z,82.73
2019-03-15T21:40:59.001Z,82.52
2019-03-15T21:44:22.163Z,82.38
2019-03-15T21:47:45.654Z,82.48
2019-03-15T21:51:08.886Z,81.86
2019-03-15T21:54:32.720Z,82.05
2019-03-15T21:57:56.226Z,81.69
2019-03-15T22:01:19.631Z,81.56
2019-03-15T22:04:43.329Z,81.15
2019-03-15T22:08:06.851Z,82.21
2019-03-15T22:11:30.220Z,82.21
2019-03-15T22:14:54.159Z,81.38
2019-03-15T22:18:17.361Z,82.23
2019-03-15T22:21:40.681Z,81.93
2019-03-15T22:25:03.944Z,81.31
2019-03-15T22:28:27.104Z,82.12
2019-03-15T22:31:50.643Z,82.04
2019-03-15T22:35:13.832Z,81.99
2019-03-15T22:38:36.944Z,81.41
2019-03-15T22:42:00.182Z,81.01
2019-03-15T22:45:23.373Z,80.99
2019-03-15T22:48:46.846Z,82.18
2019-03-15T22:52:09.973Z,81.63
2019-03-15T22:55:33.468Z,81.33
2019-03-15T22:58:56.970Z,81.88
2019-03-15T23:02:20.204Z,81.20
2019-03-15T23:05:43.540Z,81.39
2019-03-15T23:09:07.157Z,81.31
2019-03-15T23:12:30.363Z,81.79
2019-03-15T23:15:53.487Z,82.13
2019-03-15T23:19:16.792Z,81.20
2019-03-15T23:22:41.082Z,81.21
2019-03-15T23:26:04.289Z,80.66
2019-03-15T23:29:27.410Z,80.91
2019-03-15T23:32:50.649Z,80.58
2019-03-15T23:36:13.749Z,79.47
2019-03-15T23:39:36.912Z,79.58
2019-03-15T23:42:59.993Z,79.61
2019-03-15T23:46:23.109Z,79.62
2019-03-15T23:49:46.188Z,79.81
2019-03-15T23:53:09.461Z,79.38
2019-03-15T23:56:32.565Z,79.63
2019-03-15T23:59:55.706Z,79.58
